Broadmoor, Illinois
Current Conditions -  °F | °C
As of 2:55 PM on Thursday 20 Nov 2014 (Local Time) from KC75 Reporting Station
Clear Clear  
Wind Chill: 20°   Ceiling: Unl
Heat Index: 30°   Visibility: 10mi
Dew Point:   Wind: 13mph
Humidity: 37%   Direction: 290°WNW
Pressure: 30.16"   Gusts: 17mph
Location:  41.1472°N, 89.6399°W
Report Text: KC75 202055Z AUTO 29011G15KT 10SM CLR M01/M14 A3016 RMK AO2 T10101141
Loading
Personal Weather Stations






























Interactive Weather Map New forecast layout! Learn more

10-Day Weather Forecast

Advertisements
Track Severe Weather on mobile